Time;durP1;ratioP1;P1;durP2;ratioP2;P2;SDS_P1;SDS_P2;PMS_P1;PMS_P2;Temp;Humidity;BMP_temperature;BMP_pressure;BME280_temperature;BME280_humidity;BME280_pressure;Samples;Min_cycle;Max_cycle;Signal;HPM_P1;HPM_P2
2023/03/09 00:00:55;;;;;;;14.75;8.15;;;4.40;99.90;;;;;;5032575;28;20460;-74
2023/03/09 00:03:20;;;;;;;14.57;7.88;;;4.40;99.90;;;;;;5031298;28;20039;-73
2023/03/09 00:05:57;;;;;;;13.57;7.88;;;4.40;99.90;;;;;;5015427;28;20028;-74
2023/03/09 00:08:24;;;;;;;14.63;8.53;;;4.40;99.90;;;;;;5031637;28;20041;-71
2023/03/09 00:10:52;;;;;;;15.00;8.48;;;4.40;99.90;;;;;;5032477;28;20059;-72
2023/03/09 00:13:21;;;;;;;15.00;8.02;;;4.50;99.90;;;;;;5032156;28;20091;-73
2023/03/09 00:15:50;;;;;;;13.55;7.88;;;4.30;99.90;;;;;;5032460;28;20029;-72
2023/03/09 00:18:22;;;;;;;14.55;8.85;;;4.30;99.90;;;;;;5031067;28;20029;-73
2023/03/09 00:20:48;;;;;;;16.48;8.65;;;4.30;99.90;;;;;;5032875;28;20025;-73
2023/03/09 00:23:19;;;;;;;16.02;8.27;;;4.20;99.90;;;;;;5032451;28;20060;-72
2023/03/09 00:25:45;;;;;;;14.85;7.55;;;4.20;99.90;;;;;;5031057;28;20030;-73
2023/03/09 00:28:10;;;;;;;14.85;8.20;;;4.50;99.90;;;;;;5032423;28;20037;-74
2023/03/09 00:30:36;;;;;;;14.55;7.68;;;4.20;99.90;;;;;;5031887;28;20115;-72
2023/03/09 00:33:02;;;;;;;16.55;8.07;;;4.30;99.90;;;;;;5030953;28;20029;-72
2023/03/09 00:35:28;;;;;;;12.93;7.38;;;4.30;99.90;;;;;;5031674;28;20044;-73
2023/03/09 00:37:53;;;;;;;13.98;7.85;;;4.30;99.90;;;;;;5031894;28;20025;-73
2023/03/09 00:40:19;;;;;;;14.98;8.25;;;4.20;99.90;;;;;;5031107;28;20034;-73
2023/03/09 00:42:45;;;;;;;12.45;6.97;;;4.20;99.90;;;;;;5031873;28;20526;-73
2023/03/09 00:45:12;;;;;;;13.25;7.10;;;4.20;99.90;;;;;;5030643;28;20029;-73
2023/03/09 00:47:39;;;;;;;12.67;7.37;;;4.20;99.90;;;;;;5032292;28;20025;-72
2023/03/09 00:50:06;;;;;;;14.48;7.63;;;4.10;99.90;;;;;;5030627;28;20125;-73
2023/03/09 00:52:32;;;;;;;13.00;7.23;;;4.10;99.90;;;;;;5030898;28;20033;-73
2023/03/09 00:54:58;;;;;;;13.13;7.72;;;4.10;99.90;;;;;;5031461;28;20274;-72
2023/03/09 00:57:24;;;;;;;13.95;7.50;;;4.10;99.90;;;;;;5031390;28;20025;-72
2023/03/09 00:59:51;;;;;;;14.20;8.57;;;4.10;99.90;;;;;;5031401;28;20022;-72
2023/03/09 01:02:19;;;;;;;13.30;7.53;;;4.10;99.90;;;;;;5032048;28;20018;-73
2023/03/09 01:04:45;;;;;;;13.70;7.22;;;4.10;99.90;;;;;;5031528;28;20029;-72
2023/03/09 01:07:11;;;;;;;12.60;7.72;;;4.00;99.90;;;;;;5031504;28;20095;-73
2023/03/09 01:09:37;;;;;;;14.43;7.97;;;4.00;99.90;;;;;;5031485;28;20037;-73
2023/03/09 01:12:04;;;;;;;14.95;7.93;;;4.00;99.90;;;;;;5031400;28;20636;-72
2023/03/09 01:14:31;;;;;;;13.68;7.47;;;4.00;99.90;;;;;;5031969;28;20030;-73
2023/03/09 01:16:56;;;;;;;12.73;7.20;;;4.00;99.90;;;;;;5030262;28;20030;-71
2023/03/09 01:19:22;;;;;;;16.35;8.25;;;4.10;99.90;;;;;;5031052;28;20099;-72
2023/03/09 01:21:48;;;;;;;13.43;7.68;;;4.10;99.90;;;;;;5031125;28;20034;-73
2023/03/09 01:24:13;;;;;;;14.10;7.68;;;4.10;99.90;;;;;;5032177;28;20022;-72
2023/03/09 01:26:39;;;;;;;14.02;7.68;;;4.00;99.90;;;;;;5032463;28;20087;-73
2023/03/09 01:29:05;;;;;;;13.35;7.55;;;4.00;99.90;;;;;;5031075;28;20048;-73
2023/03/09 01:31:31;;;;;;;15.10;7.72;;;4.00;99.90;;;;;;5030119;28;20037;-73
2023/03/09 01:33:58;;;;;;;14.98;8.15;;;3.90;99.90;;;;;;5030992;28;20107;-72
2023/03/09 01:36:24;;;;;;;16.52;7.30;;;3.90;99.90;;;;;;5031194;28;20029;-74
2023/03/09 01:38:50;;;;;;;14.38;7.72;;;4.00;99.90;;;;;;5031154;28;20419;-72
2023/03/09 01:41:21;;;;;;;15.88;8.43;;;3.90;99.90;;;;;;5031801;28;20407;-73
2023/03/09 01:43:48;;;;;;;15.68;8.65;;;3.90;99.90;;;;;;5029639;28;20060;-73
2023/03/09 01:46:20;;;;;;;;;;;3.90;99.90;;;;;;5031553;28;20033;-74
2023/03/09 01:49:11;;;;;;;15.50;8.00;;;3.90;99.90;;;;;;5030860;28;19948;-72
2023/03/09 01:51:55;;;;;;;14.90;8.38;;;3.90;99.90;;;;;;5024840;28;20025;-72
2023/03/09 01:54:51;;;;;;;14.88;8.23;;;3.90;99.90;;;;;;5030894;28;20539;-73
2023/03/09 01:57:28;;;;;;;14.68;8.68;;;3.90;99.90;;;;;;5026716;28;20034;-72
2023/03/09 01:59:56;;;;;;;17.00;8.50;;;3.90;99.90;;;;;;5030357;28;20034;-72
2023/03/09 02:02:27;;;;;;;14.95;8.00;;;3.80;99.90;;;;;;5031489;28;20152;-74
2023/03/09 02:04:59;;;;;;;17.77;9.07;;;3.80;99.90;;;;;;5029796;28;20049;-74
2023/03/09 02:07:27;;;;;;;14.77;8.65;;;3.80;99.90;;;;;;5029093;28;20120;-74
2023/03/09 02:09:59;;;;;;;12.02;7.57;;;3.90;99.90;;;;;;5031052;28;20045;-73
2023/03/09 02:12:26;;;;;;;14.63;8.27;;;3.80;99.90;;;;;;5030748;28;20456;-73
2023/03/09 02:14:52;;;;;;;12.63;7.40;;;3.90;99.90;;;;;;5029808;28;20116;-73
2023/03/09 02:17:18;;;;;;;14.45;7.97;;;3.90;99.90;;;;;;5031231;28;20712;-72
2023/03/09 02:19:44;;;;;;;14.38;7.45;;;3.90;99.90;;;;;;5030461;28;20516;-73
2023/03/09 02:22:11;;;;;;;12.88;7.30;;;3.90;99.90;;;;;;5030348;28;20422;-73
2023/03/09 02:24:57;;;;;;;14.35;7.95;;;3.90;99.90;;;;;;5029380;28;20039;-72
2023/03/09 02:27:25;;;;;;;14.27;7.88;;;3.90;99.90;;;;;;5029374;28;20026;-72
2023/03/09 02:29:52;;;;;;;14.85;7.68;;;3.90;99.90;;;;;;5030089;28;20030;-73
2023/03/09 02:32:18;;;;;;;13.23;7.25;;;3.90;99.90;;;;;;5031031;28;20048;-73
2023/03/09 02:34:44;;;;;;;14.23;7.55;;;3.90;99.90;;;;;;5030567;28;20032;-72
2023/03/09 02:37:33;;;;;;;12.35;7.70;;;4.00;99.90;;;;;;5011023;28;20132;-73
2023/03/09 02:40:26;;;;;;;13.30;7.13;;;4.00;99.90;;;;;;5010736;28;20115;-73
2023/03/09 02:42:53;;;;;;;12.07;6.93;;;4.00;99.90;;;;;;5010514;28;20034;-73
2023/03/09 02:45:21;;;;;;;13.77;7.05;;;4.00;99.90;;;;;;5009627;28;20488;-73
2023/03/09 02:47:48;;;;;;;15.48;7.35;;;3.90;99.90;;;;;;5010234;28;20022;-73
2023/03/09 02:50:14;;;;;;;14.07;7.93;;;4.00;99.90;;;;;;5010407;28;20045;-72
2023/03/09 02:52:40;;;;;;;15.30;8.60;;;3.90;99.90;;;;;;5010373;28;20049;-73
2023/03/09 02:55:07;;;;;;;15.35;7.55;;;3.90;99.90;;;;;;5010552;28;20117;-72
2023/03/09 02:57:33;;;;;;;16.27;8.18;;;4.00;99.90;;;;;;5010276;28;20026;-72
2023/03/09 02:59:59;;;;;;;17.27;8.43;;;4.00;99.90;;;;;;5010543;28;20432;-72
2023/03/09 03:02:25;;;;;;;17.23;8.98;;;3.90;99.90;;;;;;5010744;28;20032;-73
2023/03/09 03:04:51;;;;;;;16.92;8.73;;;3.90;99.90;;;;;;5009244;28;20416;-73
2023/03/09 03:07:17;;;;;;;18.05;9.13;;;3.90;99.90;;;;;;5009516;28;20349;-73
2023/03/09 03:09:43;;;;;;;17.27;8.00;;;3.90;99.90;;;;;;5010456;28;20026;-73
2023/03/09 03:12:09;;;;;;;14.85;8.02;;;3.90;99.90;;;;;;5009168;28;20093;-73
2023/03/09 03:14:35;;;;;;;15.27;8.25;;;3.90;99.90;;;;;;5010849;28;20102;-72
2023/03/09 03:17:01;;;;;;;15.70;8.38;;;3.80;99.90;;;;;;5009265;28;20038;-74
2023/03/09 03:19:27;;;;;;;15.30;8.45;;;3.80;99.90;;;;;;5012119;28;20507;-72
2023/03/09 03:21:52;;;;;;;18.52;9.35;;;3.80;99.90;;;;;;5013775;28;20030;-73
2023/03/09 03:24:18;;;;;;;16.52;8.70;;;3.70;99.90;;;;;;5013653;28;20026;-73
2023/03/09 03:26:45;;;;;;;17.85;9.55;;;3.90;99.90;;;;;;5014019;28;20096;-73
2023/03/09 03:29:11;;;;;;;16.23;9.13;;;3.80;99.90;;;;;;5012319;28;20080;-72
2023/03/09 03:31:36;;;;;;;21.60;10.75;;;3.80;99.90;;;;;;5013426;28;20030;-72
2023/03/09 03:34:02;;;;;;;16.08;9.00;;;3.80;99.90;;;;;;5012124;28;20057;-71
2023/03/09 03:36:28;;;;;;;20.23;9.52;;;3.90;99.90;;;;;;5013356;28;20042;-72
2023/03/09 03:38:54;;;;;;;18.17;9.93;;;3.90;99.90;;;;;;5012341;28;20088;-71
2023/03/09 03:41:19;;;;;;;18.33;9.80;;;3.90;99.90;;;;;;5013763;28;20503;-73
2023/03/09 03:43:45;;;;;;;20.52;9.75;;;3.90;99.90;;;;;;5013137;28;20044;-74
2023/03/09 03:46:11;;;;;;;18.17;9.20;;;3.90;99.90;;;;;;5013158;28;20395;-73
2023/03/09 03:48:37;;;;;;;20.50;10.07;;;3.90;99.90;;;;;;5013074;28;20061;-73
2023/03/09 03:51:05;;;;;;;18.85;9.88;;;4.00;99.90;;;;;;5011978;28;20344;-72
2023/03/09 03:53:31;;;;;;;19.95;9.82;;;4.00;99.90;;;;;;5013594;28;20032;-73
2023/03/09 03:55:57;;;;;;;18.52;10.05;;;4.00;99.90;;;;;;5013099;28;20026;-73
2023/03/09 03:58:23;;;;;;;19.25;9.98;;;4.20;99.90;;;;;;5013027;28;20036;-72
2023/03/09 04:00:49;;;;;;;24.58;12.20;;;4.00;99.90;;;;;;5013081;28;20105;-72
2023/03/09 04:03:14;;;;;;;19.60;10.32;;;4.00;99.90;;;;;;5012805;28;20057;-72
2023/03/09 04:05:40;;;;;;;20.42;10.65;;;4.00;99.90;;;;;;5013496;28;20416;-72
2023/03/09 04:08:06;;;;;;;23.25;11.60;;;4.00;99.90;;;;;;5011776;28;20395;-72
2023/03/09 04:10:32;;;;;;;24.35;11.60;;;4.10;99.90;;;;;;5012918;28;20026;-72
2023/03/09 04:12:59;;;;;;;24.50;11.38;;;4.10;99.90;;;;;;5011336;28;20109;-72
2023/03/09 04:15:25;;;;;;;25.13;12.13;;;4.10;99.90;;;;;;5012626;28;20493;-72
2023/03/09 04:17:51;;;;;;;27.42;12.13;;;4.10;99.90;;;;;;5012403;28;20105;-72
2023/03/09 04:20:17;;;;;;;21.52;11.75;;;4.10;99.90;;;;;;5012778;28;20079;-72
2023/03/09 04:22:43;;;;;;;23.73;11.48;;;4.10;99.90;;;;;;5012450;28;20030;-71
2023/03/09 04:25:09;;;;;;;24.63;12.88;;;4.20;99.90;;;;;;5012312;28;20045;-73
2023/03/09 04:27:34;;;;;;;29.48;13.38;;;4.20;99.90;;;;;;5011164;28;20376;-70
2023/03/09 04:30:00;;;;;;;25.60;13.65;;;4.20;99.90;;;;;;5011636;28;20121;-73
2023/03/09 04:32:26;;;;;;;25.60;12.85;;;4.20;99.90;;;;;;5012551;28;20457;-71
2023/03/09 04:34:51;;;;;;;27.80;12.88;;;4.20;99.90;;;;;;5012191;28;20030;-71
2023/03/09 04:37:17;;;;;;;29.33;13.95;;;4.20;99.90;;;;;;5012213;28;20401;-72
2023/03/09 04:39:42;;;;;;;25.20;12.82;;;4.20;99.90;;;;;;5012046;28;20038;-72
2023/03/09 04:42:08;;;;;;;31.75;12.98;;;4.20;99.90;;;;;;5011248;28;20090;-71
2023/03/09 04:44:34;;;;;;;28.80;13.57;;;4.20;99.90;;;;;;5012412;28;20109;-72
2023/03/09 04:46:59;;;;;;;25.65;12.95;;;4.20;99.90;;;;;;5012545;28;20065;-72
2023/03/09 04:49:26;;;;;;;29.67;13.77;;;4.20;99.90;;;;;;5010971;28;20469;-73
2023/03/09 04:51:52;;;;;;;23.30;12.25;;;4.30;99.90;;;;;;5011934;28;20049;-72
2023/03/09 04:54:17;;;;;;;25.33;13.40;;;4.20;99.90;;;;;;5012030;28;20038;-72
2023/03/09 04:56:43;;;;;;;24.88;12.85;;;4.20;99.90;;;;;;5012254;28;20464;-72
2023/03/09 04:59:09;;;;;;;28.13;13.65;;;4.20;99.90;;;;;;5011755;28;20069;-72
2023/03/09 05:01:34;;;;;;;24.05;12.57;;;4.30;99.90;;;;;;5011732;28;20034;-72
2023/03/09 05:04:00;;;;;;;24.52;12.55;;;4.20;99.90;;;;;;5011655;28;20025;-73
2023/03/09 05:06:26;;;;;;;23.42;12.15;;;4.20;99.90;;;;;;5010519;28;20034;-73
2023/03/09 05:08:51;;;;;;;24.85;12.93;;;4.20;99.90;;;;;;5011586;28;20041;-72
2023/03/09 05:11:17;;;;;;;25.02;12.18;;;4.20;99.90;;;;;;5012027;28;20032;-72
2023/03/09 05:13:43;;;;;;;28.60;13.32;;;4.20;99.90;;;;;;5011477;28;20041;-72
2023/03/09 05:16:09;;;;;;;25.27;12.73;;;4.20;99.90;;;;;;5011579;28;20428;-71
2023/03/09 05:18:35;;;;;;;27.00;12.82;;;4.20;99.90;;;;;;5011512;28;20092;-73
2023/03/09 05:21:07;;;;;;;27.67;12.95;;;4.20;99.90;;;;;;5010481;28;20026;-73
2023/03/09 05:23:36;;;;;;;27.13;12.75;;;4.10;99.90;;;;;;5010869;28;20033;-72
2023/03/09 05:26:06;;;;;;;24.80;12.25;;;4.10;99.90;;;;;;5011441;28;20033;-71
2023/03/09 05:28:33;;;;;;;22.75;11.90;;;4.20;99.90;;;;;;5011241;28;20491;-73
2023/03/09 05:30:59;;;;;;;26.00;13.23;;;4.10;99.90;;;;;;5011380;28;20141;-72
2023/03/09 05:33:24;;;;;;;24.25;12.45;;;4.20;99.90;;;;;;5009810;28;20121;-72
2023/03/09 05:35:50;;;;;;;24.77;12.18;;;4.20;99.90;;;;;;5010490;28;20037;-72
2023/03/09 05:38:17;;;;;;;23.40;11.20;;;4.10;99.90;;;;;;5011755;28;20029;-73
2023/03/09 05:40:43;;;;;;;23.75;12.05;;;4.10;99.90;;;;;;5010157;28;20053;-72
2023/03/09 05:43:10;;;;;;;26.05;11.77;;;4.10;99.90;;;;;;5009826;28;20089;-73
2023/03/09 05:45:35;;;;;;;22.95;11.90;;;4.10;99.90;;;;;;5011010;28;20057;-71
2023/03/09 05:48:01;;;;;;;24.42;11.43;;;4.10;99.90;;;;;;5010846;28;20467;-72
2023/03/09 05:50:27;;;;;;;23.77;12.00;;;4.10;99.90;;;;;;5011443;28;20029;-73
2023/03/09 05:52:53;;;;;;;21.27;11.73;;;4.20;99.90;;;;;;5010829;28;20124;-72
2023/03/09 05:55:18;;;;;;;21.35;10.77;;;4.20;99.90;;;;;;5010786;28;20362;-72
2023/03/09 05:57:44;;;;;;;26.35;12.07;;;4.20;99.90;;;;;;5010680;28;20049;-74
2023/03/09 06:00:10;;;;;;;22.85;10.90;;;4.30;99.90;;;;;;5010673;28;20101;-74
2023/03/09 06:02:36;;;;;;;20.98;11.23;;;4.30;99.90;;;;;;5011173;28;20430;-73
2023/03/09 06:05:01;;;;;;;20.73;10.80;;;4.30;99.90;;;;;;5010652;28;20391;-73
2023/03/09 06:07:30;;;;;;;22.27;10.77;;;4.30;99.90;;;;;;5010761;28;20056;-74
2023/03/09 06:09:56;;;;;;;24.08;10.98;;;4.30;99.90;;;;;;5010468;28;20456;-73
2023/03/09 06:12:22;;;;;;;22.83;10.75;;;4.40;99.90;;;;;;5009472;28;20072;-72
2023/03/09 06:14:49;;;;;;;23.95;11.75;;;4.40;99.90;;;;;;5010972;28;20448;-72
2023/03/09 06:17:15;;;;;;;19.65;10.65;;;4.30;99.90;;;;;;5009893;28;20041;-73
2023/03/09 06:19:41;;;;;;;23.38;11.20;;;4.30;99.90;;;;;;5009546;28;20065;-72
2023/03/09 06:22:07;;;;;;;19.77;10.27;;;4.30;99.90;;;;;;5010517;28;20457;-72
2023/03/09 06:24:33;;;;;;;24.00;11.57;;;4.30;99.90;;;;;;5010580;28;20081;-73
2023/03/09 06:26:58;;;;;;;19.65;10.57;;;4.30;99.90;;;;;;5010649;28;20014;-73
2023/03/09 06:29:27;;;;;;;21.15;10.85;;;4.30;99.90;;;;;;5010612;28;20048;-71
2023/03/09 06:31:52;;;;;;;22.90;10.90;;;4.30;99.90;;;;;;5010429;28;20034;-71
2023/03/09 06:34:18;;;;;;;18.90;9.75;;;4.30;99.90;;;;;;5010362;28;20096;-70
2023/03/09 06:36:44;;;;;;;21.10;10.27;;;4.30;99.90;;;;;;5009233;28;20374;-71
2023/03/09 06:39:09;;;;;;;23.00;10.85;;;4.30;99.90;;;;;;5009217;28;20084;-69
2023/03/09 06:41:36;;;;;;;23.60;10.38;;;4.30;99.90;;;;;;5010956;28;20084;-70
2023/03/09 06:44:02;;;;;;;19.33;10.57;;;4.30;99.90;;;;;;5010337;28;20375;-70
2023/03/09 06:46:28;;;;;;;22.70;10.60;;;4.30;99.90;;;;;;5010256;28;20430;-71
2023/03/09 06:48:54;;;;;;;26.65;11.30;;;4.30;99.90;;;;;;5001145;28;20054;-70
2023/03/09 06:51:20;;;;;;;26.13;10.93;;;4.30;99.90;;;;;;5009681;28;20060;-70
2023/03/09 06:53:46;;;;;;;24.60;11.88;;;4.30;99.90;;;;;;5011463;28;20048;-70
2023/03/09 06:56:12;;;;;;;27.60;11.50;;;4.30;99.90;;;;;;5013828;28;20448;-70
2023/03/09 06:58:38;;;;;;;19.30;10.60;;;4.30;99.90;;;;;;5014180;28;20512;-71
2023/03/09 07:01:12;;;;;;;25.08;11.63;;;4.30;99.90;;;;;;5013808;28;20041;-70
2023/03/09 07:03:39;;;;;;;27.63;11.10;;;4.30;99.90;;;;;;5013896;28;20030;-70
2023/03/09 07:06:05;;;;;;;21.30;11.03;;;4.40;99.90;;;;;;5013801;28;20053;-70
2023/03/09 07:08:31;;;;;;;21.13;10.32;;;4.40;99.90;;;;;;5014322;28;20122;-71
2023/03/09 07:10:56;;;;;;;20.10;10.55;;;4.40;99.90;;;;;;5013740;28;20534;-71
2023/03/09 07:13:23;;;;;;;18.98;10.15;;;4.50;99.90;;;;;;5013657;28;20041;-70
2023/03/09 07:15:48;;;;;;;20.70;10.93;;;4.40;99.90;;;;;;5013744;28;20099;-71
2023/03/09 07:18:14;;;;;;;19.65;10.07;;;4.40;99.90;;;;;;5013474;28;20026;-71
2023/03/09 07:20:41;;;;;;;20.70;10.65;;;4.40;99.90;;;;;;5013872;28;20056;-71
2023/03/09 07:23:08;;;;;;;19.57;10.40;;;4.60;99.90;;;;;;5013753;28;20130;-71
2023/03/09 07:25:35;;;;;;;20.13;10.85;;;4.50;99.90;;;;;;5013457;28;20026;-71
2023/03/09 07:28:02;;;;;;;18.65;9.93;;;4.50;99.90;;;;;;5013016;28;20105;-70
2023/03/09 07:30:28;;;;;;;21.63;11.90;;;4.60;99.90;;;;;;5013146;28;20104;-70
2023/03/09 07:32:58;;;;;;;20.02;10.77;;;4.60;99.90;;;;;;5013174;28;20038;-70
2023/03/09 07:35:24;;;;;;;18.83;10.98;;;4.60;99.90;;;;;;5012609;28;20018;-69
2023/03/09 07:37:50;;;;;;;19.50;10.32;;;4.60;99.90;;;;;;5013178;28;20040;-68
2023/03/09 07:40:16;;;;;;;19.48;10.32;;;4.60;99.90;;;;;;5012931;28;20026;-68
2023/03/09 07:42:42;;;;;;;21.85;11.02;;;4.60;99.90;;;;;;5012955;28;20048;-69
2023/03/09 07:45:08;;;;;;;21.00;10.02;;;4.70;99.90;;;;;;5012906;28;20092;-69
2023/03/09 07:47:34;;;;;;;24.30;10.05;;;4.60;99.90;;;;;;5013504;28;20030;-69
2023/03/09 07:50:01;;;;;;;20.02;10.50;;;4.70;99.90;;;;;;5011850;28;20026;-69
2023/03/09 07:52:30;;;;;;;18.92;10.15;;;4.70;99.90;;;;;;5012060;28;20045;-69
2023/03/09 07:55:00;;;;;;;19.17;10.50;;;4.70;99.90;;;;;;5012855;28;20037;-69
2023/03/09 07:57:30;;;;;;;19.83;10.30;;;4.70;99.90;;;;;;5012973;28;20092;-70
2023/03/09 07:59:59;;;;;;;20.80;9.75;;;4.70;99.90;;;;;;5012940;28;20096;-69
2023/03/09 08:02:25;;;;;;;19.02;10.30;;;4.80;99.90;;;;;;5012165;28;20118;-69
2023/03/09 08:04:52;;;;;;;17.63;9.63;;;4.70;99.90;;;;;;5012075;28;20420;-68
2023/03/09 08:07:17;;;;;;;19.02;10.73;;;4.70;99.90;;;;;;5012433;28;20030;-69
2023/03/09 08:09:43;;;;;;;23.02;12.45;;;4.70;99.90;;;;;;5012937;28;20048;-68
2023/03/09 08:12:09;;;;;;;22.27;10.77;;;4.70;99.90;;;;;;5011763;28;20128;-69
2023/03/09 08:14:35;;;;;;;23.83;11.05;;;4.80;99.90;;;;;;5013229;28;20026;-69
2023/03/09 08:17:03;;;;;;;21.58;10.90;;;4.70;99.90;;;;;;5012465;28;20096;-68
2023/03/09 08:19:30;;;;;;;18.83;10.55;;;4.70;99.90;;;;;;5012695;28;20046;-70
2023/03/09 08:21:56;;;;;;;22.67;11.38;;;4.70;99.90;;;;;;5012267;28;20482;-68
2023/03/09 08:24:22;;;;;;;21.30;10.27;;;4.70;99.90;;;;;;5012111;28;20049;-68
2023/03/09 08:26:49;;;;;;;22.20;10.82;;;4.80;99.90;;;;;;5011619;28;20041;-69
2023/03/09 08:29:14;;;;;;;23.13;10.90;;;4.80;99.90;;;;;;5012244;28;20038;-70
2023/03/09 08:31:40;;;;;;;23.08;11.07;;;4.80;99.90;;;;;;5012479;28;20600;-70
2023/03/09 08:34:06;;;;;;;20.15;10.20;;;4.80;99.90;;;;;;5011396;28;20133;-69
2023/03/09 08:36:32;;;;;;;21.25;9.80;;;4.80;99.90;;;;;;5012330;28;20054;-67
2023/03/09 08:38:58;;;;;;;31.08;11.30;;;4.80;99.90;;;;;;5011970;28;20045;-69
2023/03/09 08:41:23;;;;;;;19.00;9.88;;;4.80;99.90;;;;;;5012702;28;20025;-69
2023/03/09 08:43:50;;;;;;;19.20;10.40;;;4.80;99.90;;;;;;5012005;28;20026;-68
2023/03/09 08:46:17;;;;;;;21.50;9.95;;;4.80;99.90;;;;;;5012053;28;20033;-69
2023/03/09 08:48:43;;;;;;;23.90;10.88;;;4.90;99.90;;;;;;5010872;28;20064;-69
2023/03/09 08:51:10;;;;;;;17.65;9.45;;;4.90;99.90;;;;;;5011737;28;20041;-70
2023/03/09 08:53:37;;;;;;;24.50;10.75;;;4.90;99.90;;;;;;5012230;28;20535;-69
2023/03/09 08:56:08;;;;;;;20.50;10.43;;;4.90;99.90;;;;;;5011854;28;20044;-69
2023/03/09 08:58:34;;;;;;;21.98;10.18;;;5.00;99.90;;;;;;5011112;28;20104;-69
2023/03/09 09:01:01;;;;;;;19.35;10.00;;;5.00;99.90;;;;;;5011894;28;20792;-70
2023/03/09 09:03:30;;;;;;;23.27;10.77;;;5.00;99.90;;;;;;5011870;28;20129;-70
2023/03/09 09:05:56;;;;;;;16.75;9.13;;;5.10;99.90;;;;;;5011702;28;20033;-69
2023/03/09 09:08:24;;;;;;;18.83;9.93;;;5.10;99.90;;;;;;5011978;28;20022;-69
2023/03/09 09:10:50;;;;;;;22.23;10.45;;;5.10;99.90;;;;;;5011881;28;20037;-70
2023/03/09 09:13:16;;;;;;;17.73;10.07;;;5.20;99.90;;;;;;5011875;28;20372;-69
2023/03/09 09:15:43;;;;;;;18.20;10.63;;;5.10;99.90;;;;;;5010682;28;20436;-69
2023/03/09 09:18:08;;;;;;;19.50;9.70;;;5.20;99.90;;;;;;5011427;28;20029;-69
2023/03/09 09:20:35;;;;;;;21.10;10.43;;;5.20;99.90;;;;;;5011959;28;20018;-68
2023/03/09 09:23:01;;;;;;;21.83;10.85;;;5.20;99.90;;;;;;5011741;28;20034;-68
2023/03/09 09:25:26;;;;;;;19.88;10.23;;;5.30;99.90;;;;;;5011735;28;20527;-69
2023/03/09 09:27:52;;;;;;;19.08;9.85;;;5.20;99.90;;;;;;5011535;28;20030;-70
2023/03/09 09:30:18;;;;;;;18.42;9.85;;;5.30;99.90;;;;;;5011272;28;20038;-70
2023/03/09 09:32:45;;;;;;;23.98;12.38;;;5.30;99.90;;;;;;5011791;28;20049;-69
2023/03/09 09:35:11;;;;;;;20.08;10.75;;;5.30;99.90;;;;;;5011771;28;20034;-70
2023/03/09 09:37:40;;;;;;;19.13;10.23;;;5.30;99.90;;;;;;5011535;28;20041;-70
2023/03/09 09:40:10;;;;;;;18.73;9.93;;;5.40;99.90;;;;;;5010023;28;20048;-70
2023/03/09 09:42:44;;;;;;;20.92;11.00;;;5.40;99.90;;;;;;5011551;28;20157;-69
2023/03/09 09:45:31;;;;;;;20.27;10.02;;;5.40;99.90;;;;;;5010705;28;20053;-71
2023/03/09 09:48:04;;;;;;;27.33;12.97;;;5.40;99.90;;;;;;5011125;28;20032;-68
2023/03/09 09:50:41;;;;;;;22.58;12.15;;;5.40;99.90;;;;;;5011590;28;20022;-68
2023/03/09 09:53:32;;;;;;;19.90;11.02;;;5.50;99.90;;;;;;5010828;28;20464;-69
2023/03/09 09:56:00;;;;;;;18.00;9.80;;;5.50;99.90;;;;;;5010894;28;20038;-70
2023/03/09 09:58:44;;;;;;;18.38;9.98;;;5.50;99.90;;;;;;5010811;28;20117;-70
2023/03/09 10:01:23;;;;;;;19.52;10.25;;;5.50;99.90;;;;;;5009758;28;20025;-69
2023/03/09 10:03:53;;;;;;;19.63;10.77;;;5.50;99.90;;;;;;5010528;28;20034;-69
2023/03/09 10:06:21;;;;;;;23.13;11.93;;;5.60;99.90;;;;;;5011227;28;20052;-69
2023/03/09 10:08:57;;;;;;;23.10;11.00;;;5.60;99.90;;;;;;5011352;28;20029;-70
2023/03/09 10:11:26;;;;;;;21.40;10.30;;;5.70;99.90;;;;;;5010746;28;20045;-70
2023/03/09 10:14:24;;;;;;;18.02;10.05;;;5.70;99.90;;;;;;5010702;28;20029;-68
2023/03/09 10:17:05;;;;;;;19.30;10.85;;;5.70;99.90;;;;;;5009275;28;20069;-69
2023/03/09 10:19:38;;;;;;;21.00;11.15;;;5.70;99.90;;;;;;5010963;28;20036;-69
2023/03/09 10:22:06;;;;;;;18.90;10.65;;;5.60;99.90;;;;;;5009519;28;20037;-68
2023/03/09 10:24:43;;;;;;;22.30;11.35;;;5.70;99.90;;;;;;5010855;28;20053;-69
2023/03/09 10:27:55;;;;;;;23.23;11.88;;;5.70;99.90;;;;;;5009480;28;20037;-72
2023/03/09 10:30:47;;;;;;;23.25;11.32;;;5.70;99.90;;;;;;4992519;28;20038;-69
2023/03/09 10:33:42;;;;;;;29.05;12.18;;;5.70;99.90;;;;;;5014846;28;20039;-70
2023/03/09 10:36:21;;;;;;;44.60;17.83;;;5.70;99.90;;;;;;5014242;28;20029;-70
2023/03/09 10:38:48;;;;;;;30.70;13.80;;;5.80;99.90;;;;;;5015079;28;20034;-70
2023/03/09 10:41:17;;;;;;;24.13;11.73;;;5.80;99.90;;;;;;5014511;28;20128;-70
2023/03/09 10:43:44;;;;;;;23.58;11.70;;;5.90;99.90;;;;;;5014585;28;20030;-70
2023/03/09 10:46:24;;;;;;;26.13;11.82;;;5.80;99.90;;;;;;5014607;28;20026;-70
2023/03/09 10:49:09;;;;;;;22.20;11.95;;;5.80;99.90;;;;;;5014520;28;20030;-70
2023/03/09 10:51:38;;;;;;;25.58;11.63;;;5.90;99.90;;;;;;5014169;28;20411;-70
2023/03/09 10:54:24;;;;;;;24.20;12.10;;;5.80;99.90;;;;;;5013779;28;20017;-71
2023/03/09 10:56:51;;;;;;;30.10;13.73;;;5.90;99.90;;;;;;5014110;28;20040;-70
2023/03/09 10:59:20;;;;;;;26.42;12.20;;;6.00;99.90;;;;;;5015034;28;20021;-70
2023/03/09 11:01:56;;;;;;;32.90;13.45;;;6.00;99.90;;;;;;5013285;28;20042;-72
2023/03/09 11:04:22;;;;;;;27.05;12.50;;;6.00;99.90;;;;;;5014150;28;20029;-70
2023/03/09 11:07:14;;;;;;;26.92;11.90;;;6.10;99.90;;;;;;5013690;28;20392;-71
2023/03/09 11:09:43;;;;;;;26.30;12.23;;;6.10;99.90;;;;;;5011927;28;20113;-70
2023/03/09 11:12:14;;;;;;;28.48;13.60;;;6.10;99.90;;;;;;5012532;28;20058;-69
2023/03/09 11:14:46;;;;;;;27.17;12.27;;;6.00;99.90;;;;;;5014369;28;20018;-69
2023/03/09 11:17:38;;;;;;;24.95;11.80;;;5.90;99.90;;;;;;5013686;28;20026;-69
2023/03/09 11:20:28;;;;;;;30.95;12.95;;;5.90;99.90;;;;;;5013540;28;20038;-70
2023/03/09 11:23:03;;;;;;;24.42;11.93;;;5.90;99.90;;;;;;5013391;28;20041;-70
2023/03/09 11:26:09;;;;;;;23.10;11.80;;;5.90;99.90;;;;;;5013469;28;20045;-68
2023/03/09 11:29:19;;;;;;;30.13;15.00;;;5.90;99.90;;;;;;5013125;28;20198;-71
2023/03/09 11:31:45;;;;;;;32.17;14.02;;;5.80;99.90;;;;;;4996654;28;20030;-70
2023/03/09 11:34:19;;;;;;;36.10;14.45;;;5.90;99.90;;;;;;5013592;28;20112;-70
2023/03/09 11:37:12;;;;;;;31.52;13.88;;;6.00;99.90;;;;;;5013733;28;20033;-69
2023/03/09 11:39:49;;;;;;;30.42;13.77;;;6.00;99.90;;;;;;5012952;28;20515;-69
2023/03/09 11:42:19;;;;;;;26.85;12.93;;;6.00;99.90;;;;;;5013140;28;20437;-70
2023/03/09 11:44:48;;;;;;;25.23;12.38;;;6.00;99.90;;;;;;5012452;28;20053;-69
2023/03/09 11:47:32;;;;;;;28.02;13.75;;;6.00;99.90;;;;;;5012066;28;20030;-69
2023/03/09 11:50:05;;;;;;;25.35;13.00;;;6.00;99.90;;;;;;5013250;28;20022;-70
2023/03/09 11:52:40;;;;;;;27.20;12.55;;;6.00;99.90;;;;;;5011798;28;20042;-71
2023/03/09 11:55:13;;;;;;;25.73;12.45;;;6.00;99.90;;;;;;5011832;28;20030;-70
2023/03/09 11:57:42;;;;;;;29.42;14.30;;;6.00;99.90;;;;;;5013123;28;20049;-71
2023/03/09 12:00:14;;;;;;;34.45;13.35;;;6.00;99.90;;;;;;5012912;28;20440;-69
2023/03/09 12:03:05;;;;;;;28.17;13.13;;;6.00;99.90;;;;;;5013081;28;20029;-69
2023/03/09 12:05:37;;;;;;;28.77;13.55;;;6.00;99.90;;;;;;5009608;28;20046;-70
2023/03/09 12:08:25;;;;;;;30.25;13.38;;;5.90;99.90;;;;;;5011591;28;20049;-69
2023/03/09 12:10:56;;;;;;;30.65;13.25;;;5.80;99.90;;;;;;5011533;28;20407;-70
2023/03/09 12:13:26;;;;;;;36.35;15.13;;;5.90;99.90;;;;;;5012323;28;20041;-70
2023/03/09 12:16:09;;;;;;;31.05;14.73;;;5.90;99.90;;;;;;5011533;28;20360;-70
2023/03/09 12:18:38;;;;;;;30.23;13.95;;;5.90;99.90;;;;;;5011515;28;20034;-69
2023/03/09 12:21:13;;;;;;;26.45;12.40;;;5.90;99.90;;;;;;5012302;28;20021;-69
2023/03/09 12:23:41;;;;;;;33.28;13.48;;;5.90;99.90;;;;;;5012946;28;20104;-70
2023/03/09 12:26:20;;;;;;;27.42;12.65;;;5.90;99.90;;;;;;5012378;28;20034;-69
2023/03/09 12:29:13;;;;;;;26.75;13.35;;;6.00;99.90;;;;;;5012122;28;20109;-69
2023/03/09 12:31:40;;;;;;;31.25;13.57;;;5.90;99.90;;;;;;5012011;28;20030;-70
2023/03/09 12:34:27;;;;;;;26.23;12.90;;;6.00;99.90;;;;;;5012002;28;20137;-71
2023/03/09 12:36:52;;;;;;;27.80;13.57;;;6.00;99.90;;;;;;5012035;28;20034;-68
2023/03/09 12:39:28;;;;;;;25.88;13.80;;;6.10;99.90;;;;;;5011998;28;20036;-69
2023/03/09 12:41:57;;;;;;;29.88;14.00;;;6.10;99.90;;;;;;5012096;28;20030;-69
2023/03/09 12:44:45;;;;;;;35.15;14.95;;;6.10;99.90;;;;;;5012610;28;20033;-69
2023/03/09 12:47:36;;;;;;;24.85;13.15;;;6.10;99.90;;;;;;5012372;28;20026;-69
2023/03/09 12:50:20;;;;;;;32.95;14.55;;;6.10;99.90;;;;;;5010682;28;20244;-68
2023/03/09 12:52:46;;;;;;;36.60;15.63;;;6.10;99.90;;;;;;5011013;28;20364;-70